createdAt,value
2019-03-02T00:00:03.524Z,977.61
2019-03-02T00:01:14.506Z,977.62
2019-03-02T00:02:25.463Z,977.62
2019-03-02T00:03:35.970Z,977.59
2019-03-02T00:04:49.235Z,977.58
2019-03-02T00:06:00.897Z,977.57
2019-03-02T00:07:11.445Z,977.5
2019-03-02T00:08:25.105Z,977.52
2019-03-02T00:09:35.404Z,977.52
2019-03-02T00:10:45.796Z,977.52
2019-03-02T00:11:56.433Z,977.53
2019-03-02T00:13:08.602Z,977.53
2019-03-02T00:14:19.150Z,977.56
2019-03-02T00:15:30.593Z,977.52
2019-03-02T00:16:43.264Z,977.5
2019-03-02T00:17:54.070Z,977.47
2019-03-02T00:19:06.604Z,977.45
2019-03-02T00:20:18.036Z,977.44
2019-03-02T00:21:31.353Z,977.42
2019-03-02T00:22:43.380Z,977.41
2019-03-02T00:23:54.226Z,977.36
2019-03-02T00:25:04.480Z,977.32
2019-03-02T00:26:14.406Z,977.35
2019-03-02T00:27:24.323Z,977.3
2019-03-02T00:28:35.550Z,977.24
2019-03-02T00:29:46.746Z,977.23
2019-03-02T00:30:57.762Z,977.16
2019-03-02T00:32:09.529Z,977.17
2019-03-02T00:33:21.008Z,977.15
2019-03-02T00:34:32.010Z,977.11
2019-03-02T00:35:43.614Z,977.15
2019-03-02T00:36:54.852Z,977.08
2019-03-02T00:38:08.711Z,977.14
2019-03-02T00:39:19.177Z,977.16
2019-03-02T00:40:30.294Z,977.16
2019-03-02T00:41:42.099Z,977.14
2019-03-02T00:42:52.820Z,977.18
2019-03-02T00:44:03.730Z,977.11
2019-03-02T00:45:15.125Z,977.14
2019-03-02T00:46:25.279Z,977.14
2019-03-02T00:47:35.352Z,977.14
2019-03-02T00:48:46.900Z,977.09
2019-03-02T00:50:00.513Z,977.09
2019-03-02T00:51:11.165Z,977.07
2019-03-02T00:52:23.391Z,977.07
2019-03-02T00:53:35.453Z,977.04
2019-03-02T00:54:46.260Z,977.05
2019-03-02T00:56:07.722Z,976.98
2019-03-02T00:57:18.594Z,976.98
2019-03-02T00:58:29.105Z,976.92
2019-03-02T00:59:40.350Z,976.9
2019-03-02T01:00:53.576Z,976.88
2019-03-02T01:02:04.322Z,976.85
2019-03-02T01:03:15.579Z,976.88
2019-03-02T01:04:25.976Z,976.82
2019-03-02T01:05:37.194Z,976.77
2019-03-02T01:06:48.694Z,976.78
2019-03-02T01:07:59.682Z,976.75
2019-03-02T01:09:11.647Z,976.78
2019-03-02T01:10:22.587Z,976.86
2019-03-02T01:11:33.912Z,976.83
2019-03-02T01:12:45.247Z,976.85
2019-03-02T01:13:56.809Z,976.86
2019-03-02T01:15:08.392Z,976.84
2019-03-02T01:16:19.918Z,976.85
2019-03-02T01:17:30.741Z,976.82
2019-03-02T01:18:42.366Z,976.82
2019-03-02T01:19:53.686Z,976.78
2019-03-02T01:21:04.951Z,976.78
2019-03-02T01:22:16.519Z,976.78
2019-03-02T01:23:28.605Z,976.78
2019-03-02T01:24:38.876Z,976.77
2019-03-02T01:25:49.736Z,976.73
2019-03-02T01:27:00.573Z,976.69
2019-03-02T01:28:10.757Z,976.68
2019-03-02T01:29:20.507Z,976.64
2019-03-02T01:30:30.922Z,976.58
2019-03-02T01:31:41.756Z,976.57
2019-03-02T01:32:52.598Z,976.52
2019-03-02T01:34:04.432Z,976.51
2019-03-02T01:35:16.374Z,976.47
2019-03-02T01:36:28.610Z,976.47
2019-03-02T01:37:43.617Z,976.49
2019-03-02T01:38:54.815Z,976.48
2019-03-02T01:40:06.223Z,976.44
2019-03-02T01:41:17.656Z,976.42
2019-03-02T01:42:29.675Z,976.41
2019-03-02T01:43:40.302Z,976.39
2019-03-02T01:44:51.622Z,976.35
2019-03-02T01:46:03.262Z,976.34
2019-03-02T01:47:15.728Z,976.28
2019-03-02T01:48:27.885Z,976.23
2019-03-02T01:49:37.870Z,976.17
2019-03-02T01:50:48.855Z,976.21
2019-03-02T01:51:59.103Z,976.18
2019-03-02T01:53:09.859Z,976.17
2019-03-02T01:54:21.211Z,976.13
2019-03-02T01:55:32.120Z,976.14
2019-03-02T01:56:42.619Z,976.09
2019-03-02T01:57:53.191Z,976.04
2019-03-02T01:59:03.896Z,976.04
2019-03-02T02:00:14.562Z,976.06
2019-03-02T02:01:25.763Z,976
2019-03-02T02:02:36.188Z,975.99
2019-03-02T02:03:47.980Z,975.98
2019-03-02T02:04:58.398Z,975.96
2019-03-02T02:06:08.741Z,975.97
2019-03-02T02:07:19.344Z,975.92
2019-03-02T02:08:29.753Z,975.89
2019-03-02T02:09:40.509Z,975.94
2019-03-02T02:10:50.616Z,975.85
2019-03-02T02:12:00.532Z,975.9
2019-03-02T02:13:10.446Z,975.82
2019-03-02T02:14:20.364Z,975.75
2019-03-02T02:15:30.447Z,975.72
2019-03-02T02:16:41.739Z,975.7
2019-03-02T02:17:52.915Z,975.67
2019-03-02T02:19:03.353Z,975.67
2019-03-02T02:20:14.503Z,975.73
2019-03-02T02:21:26.521Z,975.73
2019-03-02T02:22:37.915Z,975.74
2019-03-02T02:23:49.711Z,975.76
2019-03-02T02:25:00.389Z,975.76
2019-03-02T02:26:12.529Z,975.78
2019-03-02T02:27:23.605Z,975.72
2019-03-02T02:28:33.458Z,975.74
2019-03-02T02:29:43.651Z,975.64
2019-03-02T02:30:54.304Z,975.61
2019-03-02T02:32:13.473Z,975.63
2019-03-02T02:33:31.031Z,975.61
2019-03-02T02:34:47.924Z,975.55
2019-03-02T02:36:05.828Z,975.52
2019-03-02T02:37:23.387Z,975.48
2019-03-02T02:38:41.380Z,975.41
2019-03-02T02:39:59.366Z,975.35
2019-03-02T02:41:21.892Z,975.37
2019-03-02T02:42:32.812Z,975.35
2019-03-02T02:43:54.026Z,975.33
2019-03-02T02:45:10.953Z,975.28
2019-03-02T02:46:31.869Z,975.29
2019-03-02T02:47:50.159Z,975.26
2019-03-02T02:49:05.218Z,975.28
2019-03-02T02:50:27.838Z,975.26
2019-03-02T02:51:39.158Z,975.3
2019-03-02T02:52:56.141Z,975.35
2019-03-02T02:54:14.046Z,975.24
2019-03-02T02:55:30.306Z,975.24
2019-03-02T02:56:46.406Z,975.19
2019-03-02T02:58:01.804Z,975.13
2019-03-02T02:59:19.978Z,975.16
2019-03-02T03:00:29.673Z,975.13
2019-03-02T03:01:40.977Z,975.06
2019-03-02T03:02:50.720Z,975.09
2019-03-02T03:04:00.928Z,975.12
2019-03-02T03:05:15.088Z,975.12
2019-03-02T03:06:28.397Z,975.15
2019-03-02T03:07:40.460Z,975.14
2019-03-02T03:09:05.103Z,975.16
2019-03-02T03:10:23.245Z,975.08
2019-03-02T03:11:43.525Z,975.07
2019-03-02T03:12:56.649Z,975.01
2019-03-02T03:14:09.850Z,975.04
2019-03-02T03:15:25.244Z,975
2019-03-02T03:16:44.221Z,975.02
2019-03-02T03:18:00.715Z,975.01
2019-03-02T03:19:18.302Z,975.02
2019-03-02T03:20:35.661Z,974.99
2019-03-02T03:21:53.437Z,975.04
2019-03-02T03:23:12.109Z,975.01
2019-03-02T03:24:28.021Z,974.94
2019-03-02T03:25:45.392Z,974.88
2019-03-02T03:27:04.060Z,974.91
2019-03-02T03:28:18.881Z,974.94
2019-03-02T03:29:35.925Z,974.92
2019-03-02T03:30:52.560Z,974.93
2019-03-02T03:32:08.869Z,974.92
2019-03-02T03:33:21.747Z,974.95
2019-03-02T03:34:47.937Z,974.95
2019-03-02T03:35:57.934Z,974.96
2019-03-02T03:37:08.250Z,974.93
2019-03-02T03:38:24.792Z,974.89
2019-03-02T03:39:37.067Z,974.92
2019-03-02T03:40:51.783Z,974.86
2019-03-02T03:42:08.324Z,974.86
2019-03-02T03:43:27.839Z,974.77
2019-03-02T03:44:47.373Z,974.73
2019-03-02T03:46:00.372Z,974.72
2019-03-02T03:47:10.297Z,974.69
2019-03-02T03:48:20.216Z,974.68
2019-03-02T03:49:34.149Z,974.7
2019-03-02T03:50:47.942Z,974.71
2019-03-02T03:52:03.811Z,974.68
2019-03-02T03:53:21.667Z,974.67
2019-03-02T03:54:40.830Z,974.69
2019-03-02T03:55:53.072Z,974.64
2019-03-02T03:57:11.279Z,974.61
2019-03-02T03:58:27.049Z,974.6
2019-03-02T03:59:42.810Z,974.57
2019-03-02T04:01:01.067Z,974.56
2019-03-02T04:02:20.105Z,974.54
2019-03-02T04:03:37.620Z,974.44
2019-03-02T04:04:56.397Z,974.44
2019-03-02T04:06:15.641Z,974.42
2019-03-02T04:07:32.128Z,974.45
2019-03-02T04:08:49.532Z,974.36
2019-03-02T04:10:03.915Z,974.34
2019-03-02T04:11:13.848Z,974.35
2019-03-02T04:12:24.362Z,974.38
2019-03-02T04:13:43.881Z,974.3
2019-03-02T04:14:56.780Z,974.34
2019-03-02T04:16:11.101Z,974.32
2019-03-02T04:17:28.214Z,974.27
2019-03-02T04:18:44.561Z,974.31
2019-03-02T04:20:07.908Z,974.36
2019-03-02T04:21:23.184Z,974.31
2019-03-02T04:22:39.800Z,974.3
2019-03-02T04:23:56.064Z,974.2
2019-03-02T04:25:12.905Z,974.2
2019-03-02T04:26:31.285Z,974.26
2019-03-02T04:27:53.065Z,974.24
2019-03-02T04:29:08.683Z,974.22
2019-03-02T04:30:30.257Z,974.19
2019-03-02T04:31:43.838Z,974.16
2019-03-02T04:33:01.634Z,974.16
2019-03-02T04:34:20.132Z,974.16
2019-03-02T04:35:33.636Z,974.12
2019-03-02T04:36:47.244Z,974.13
2019-03-02T04:38:00.590Z,974.12
2019-03-02T04:39:13.567Z,974.11
2019-03-02T04:40:27.641Z,974.1
2019-03-02T04:41:39.497Z,974.17
2019-03-02T04:42:50.089Z,974.14
2019-03-02T04:44:00.348Z,974.16
2019-03-02T04:45:10.259Z,974.21
2019-03-02T04:46:20.326Z,974.2
2019-03-02T04:47:30.242Z,974.22
2019-03-02T04:48:40.160Z,974.25
2019-03-02T04:49:51.353Z,974.19
2019-03-02T04:51:02.547Z,974.2
2019-03-02T04:52:14.499Z,974.17
2019-03-02T04:53:24.978Z,974.18
2019-03-02T04:54:37.610Z,974.15
2019-03-02T04:55:48.507Z,974.19
2019-03-02T04:56:59.736Z,974.13
2019-03-02T04:58:11.889Z,974.14
2019-03-02T04:59:22.990Z,974.1
2019-03-02T05:00:33.141Z,974.04
2019-03-02T05:01:46.017Z,974.1
2019-03-02T05:02:56.177Z,974.11
2019-03-02T05:04:06.262Z,974.12
2019-03-02T05:05:16.179Z,974.12
2019-03-02T05:06:25.845Z,974.13
2019-03-02T05:07:35.758Z,974.07
2019-03-02T05:08:45.694Z,974.03
2019-03-02T05:09:55.711Z,973.98
2019-03-02T05:11:05.652Z,973.92
2019-03-02T05:12:15.608Z,973.96
2019-03-02T05:13:28.271Z,973.99
2019-03-02T05:14:40.147Z,974
2019-03-02T05:15:52.279Z,973.91
2019-03-02T05:17:03.380Z,973.89
2019-03-02T05:18:18.083Z,973.94
2019-03-02T05:19:29.084Z,973.86
2019-03-02T05:20:41.001Z,973.86
2019-03-02T05:21:51.939Z,973.9
2019-03-02T05:23:01.853Z,973.89
2019-03-02T05:24:11.767Z,973.9
2019-03-02T05:25:21.694Z,973.93
2019-03-02T05:26:31.662Z,973.94
2019-03-02T05:27:41.604Z,973.94
2019-03-02T05:28:51.519Z,973.99
2019-03-02T05:30:01.431Z,973.91
2019-03-02T05:31:11.350Z,973.86
2019-03-02T05:32:21.566Z,973.78
2019-03-02T05:33:31.487Z,973.76
2019-03-02T05:34:41.413Z,973.78
2019-03-02T05:35:51.749Z,973.78
2019-03-02T05:37:02.798Z,973.86
2019-03-02T05:38:15.139Z,973.81
2019-03-02T05:39:25.281Z,973.85
2019-03-02T05:40:35.196Z,973.8
2019-03-02T05:41:45.104Z,973.81
2019-03-02T05:42:56.077Z,973.81
2019-03-02T05:44:06.157Z,973.73
2019-03-02T05:45:16.079Z,973.75
2019-03-02T05:46:29.126Z,973.71
2019-03-02T05:47:39.053Z,973.76
2019-03-02T05:48:48.975Z,973.72
2019-03-02T05:49:58.939Z,973.75
2019-03-02T05:51:08.849Z,973.78
2019-03-02T05:52:18.860Z,973.86
2019-03-02T05:53:30.218Z,973.88
2019-03-02T05:54:41.502Z,973.87
2019-03-02T05:55:53.592Z,973.89
2019-03-02T05:57:04.282Z,973.81
2019-03-02T05:58:15.786Z,973.77
2019-03-02T05:59:27.825Z,973.75
2019-03-02T06:00:38.928Z,973.73
2019-03-02T06:01:48.955Z,973.76
2019-03-02T06:02:58.913Z,973.62
2019-03-02T06:04:08.823Z,973.61
2019-03-02T06:05:22.584Z,973.65
2019-03-02T06:06:32.496Z,973.61
2019-03-02T06:07:42.566Z,973.63
2019-03-02T06:08:54.386Z,973.59
2019-03-02T06:10:04.303Z,973.67
2019-03-02T06:11:16.587Z,973.65
2019-03-02T06:12:26.248Z,973.73
2019-03-02T06:13:36.272Z,973.69
2019-03-02T06:14:46.190Z,973.71
2019-03-02T06:15:56.114Z,973.72
2019-03-02T06:17:06.027Z,973.69
2019-03-02T06:18:15.946Z,973.66
2019-03-02T06:19:25.916Z,973.61
2019-03-02T06:20:36.737Z,973.63
2019-03-02T06:21:47.524Z,973.62
2019-03-02T06:22:57.445Z,973.62
2019-03-02T06:24:07.360Z,973.58
2019-03-02T06:25:20.939Z,973.56
2019-03-02T06:26:31.685Z,973.51
2019-03-02T06:27:46.881Z,973.5
2019-03-02T06:28:57.807Z,973.48
2019-03-02T06:30:08.325Z,973.48
2019-03-02T06:31:19.080Z,973.43
2019-03-02T06:32:29.835Z,973.38
2019-03-02T06:33:44.023Z,973.38
2019-03-02T06:34:55.751Z,973.33
2019-03-02T06:36:08.632Z,973.34
2019-03-02T06:37:19.912Z,973.32
2019-03-02T06:38:32.079Z,973.38
2019-03-02T06:39:44.402Z,973.38
2019-03-02T06:40:58.026Z,973.36
2019-03-02T06:42:09.790Z,973.37
2019-03-02T06:43:21.725Z,973.34
2019-03-02T06:44:34.112Z,973.33
2019-03-02T06:45:44.388Z,973.39
2019-03-02T06:46:54.646Z,973.39
2019-03-02T06:48:09.567Z,973.43
2019-03-02T06:49:20.902Z,973.43
2019-03-02T06:50:31.684Z,973.41
2019-03-02T06:51:43.668Z,973.36
2019-03-02T06:52:57.840Z,973.35
2019-03-02T06:54:12.697Z,973.32
2019-03-02T06:55:25.501Z,973.32
2019-03-02T06:56:35.871Z,973.3
2019-03-02T06:57:49.801Z,973.24
2019-03-02T06:59:00.618Z,973.21
2019-03-02T07:00:13.911Z,973.22
2019-03-02T07:01:24.698Z,973.22
2019-03-02T07:02:35.233Z,973.24
2019-03-02T07:03:46.711Z,973.28
2019-03-02T07:04:58.014Z,973.36
2019-03-02T07:06:11.613Z,973.3
2019-03-02T07:07:22.814Z,973.35
2019-03-02T07:08:33.786Z,973.33
2019-03-02T07:09:45.216Z,973.37
2019-03-02T07:10:57.873Z,973.29
2019-03-02T07:12:09.413Z,973.26
2019-03-02T07:13:21.132Z,973.27
2019-03-02T07:14:32.253Z,973.26
2019-03-02T07:15:43.672Z,973.2
2019-03-02T07:16:55.866Z,973.2
2019-03-02T07:18:07.784Z,973.21
2019-03-02T07:19:17.872Z,973.19
2019-03-02T07:20:28.243Z,973.15
2019-03-02T07:21:41.440Z,973.17
2019-03-02T07:22:53.216Z,973.17
2019-03-02T07:24:03.199Z,973.19
2019-03-02T07:25:14.645Z,973.2
2019-03-02T07:26:24.422Z,973.22
2019-03-02T07:27:34.339Z,973.16
2019-03-02T07:28:44.349Z,973.06
2019-03-02T07:29:55.073Z,973.04
2019-03-02T07:31:05.057Z,973.06
2019-03-02T07:32:15.544Z,973.08
2019-03-02T07:33:25.494Z,973.06
2019-03-02T07:34:35.463Z,973.07
2019-03-02T07:35:51.627Z,973.03
2019-03-02T07:37:05.682Z,973.1
2019-03-02T07:38:19.939Z,973.05
2019-03-02T07:39:32.575Z,973.02
2019-03-02T07:40:45.419Z,973.06
2019-03-02T07:41:57.856Z,973.03
2019-03-02T07:43:09.639Z,972.97
2019-03-02T07:44:22.212Z,972.96
2019-03-02T07:45:34.719Z,973.01
2019-03-02T07:46:47.866Z,972.96
2019-03-02T07:48:00.103Z,973
2019-03-02T07:49:13.002Z,973
2019-03-02T07:50:25.552Z,973.03
2019-03-02T07:51:37.823Z,973.02
2019-03-02T07:52:49.649Z,973.03
2019-03-02T07:54:02.019Z,973.03
2019-03-02T07:55:14.631Z,973
2019-03-02T07:56:29.528Z,972.97
2019-03-02T07:57:40.579Z,972.97
2019-03-02T07:58:51.804Z,972.97
2019-03-02T08:00:05.427Z,972.93
2019-03-02T08:01:16.618Z,972.95
2019-03-02T08:02:29.494Z,972.86
2019-03-02T08:03:39.671Z,972.91
2019-03-02T08:04:49.594Z,972.92
2019-03-02T08:06:01.261Z,972.94
2019-03-02T08:07:11.349Z,972.95
2019-03-02T08:08:21.377Z,972.95
2019-03-02T08:09:31.295Z,972.97
2019-03-02T08:10:41.213Z,972.9
2019-03-02T08:11:51.127Z,972.9
2019-03-02T08:13:03.180Z,972.84
2019-03-02T08:14:13.095Z,972.84
2019-03-02T08:15:24.487Z,972.9
2019-03-02T08:16:37.695Z,972.78
2019-03-02T08:17:48.982Z,972.78
2019-03-02T08:19:00.448Z,972.77
2019-03-02T08:20:11.563Z,972.77
2019-03-02T08:21:25.294Z,972.8
2019-03-02T08:22:38.672Z,972.79
2019-03-02T08:23:51.528Z,972.76
2019-03-02T08:25:01.452Z,972.85
2019-03-02T08:26:11.386Z,972.83
2019-03-02T08:27:23.028Z,972.79
2019-03-02T08:28:37.297Z,972.7
2019-03-02T08:29:53.782Z,972.71
2019-03-02T08:31:05.462Z,972.67
2019-03-02T08:32:21.106Z,972.67
2019-03-02T08:33:33.492Z,972.61
2019-03-02T08:34:53.207Z,972.54
2019-03-02T08:36:03.126Z,972.52
2019-03-02T08:37:17.472Z,972.5
2019-03-02T08:38:30.360Z,972.46
2019-03-02T08:39:42.700Z,972.39
2019-03-02T08:40:56.194Z,972.36
2019-03-02T08:42:08.753Z,972.27
2019-03-02T08:43:19.885Z,972.25
2019-03-02T08:44:29.808Z,972.27
2019-03-02T08:45:40.270Z,972.23
2019-03-02T08:46:50.190Z,972.26
2019-03-02T08:48:00.104Z,972.23
2019-03-02T08:49:10.102Z,972.28
2019-03-02T08:50:20.036Z,972.23
2019-03-02T08:51:29.978Z,972.26
2019-03-02T08:52:39.895Z,972.29
2019-03-02T08:53:49.915Z,972.28
2019-03-02T08:54:59.830Z,972.26
2019-03-02T08:56:11.831Z,972.21
2019-03-02T08:57:23.066Z,972.17
2019-03-02T08:58:33.194Z,972.15
2019-03-02T08:59:42.972Z,972.12
2019-03-02T09:00:52.904Z,972.08
2019-03-02T09:02:02.821Z,972.09
2019-03-02T09:03:12.740Z,972.08
2019-03-02T09:04:22.688Z,972.1
2019-03-02T09:05:43.770Z,972.11
2019-03-02T09:07:00.559Z,972.12
2019-03-02T09:08:14.347Z,972.12
2019-03-02T09:09:24.024Z,972.13
2019-03-02T09:10:33.945Z,972.11
2019-03-02T09:11:46.372Z,972.08
2019-03-02T09:12:58.600Z,972.06
2019-03-02T09:14:09.669Z,972.1
2019-03-02T09:15:25.935Z,972.1
2019-03-02T09:16:38.492Z,972.1
2019-03-02T09:17:53.696Z,972.09
2019-03-02T09:19:05.620Z,972.12
2019-03-02T09:20:17.358Z,972.06
2019-03-02T09:21:27.305Z,972.02
2019-03-02T09:22:37.223Z,972.02
2019-03-02T09:23:47.146Z,972.02
2019-03-02T09:24:59.329Z,971.98
2019-03-02T09:26:09.263Z,971.92
2019-03-02T09:27:20.286Z,971.89
2019-03-02T09:28:30.419Z,971.84
2019-03-02T09:29:40.344Z,971.86
2019-03-02T09:30:51.916Z,971.84
2019-03-02T09:32:06.859Z,971.81
2019-03-02T09:33:19.492Z,971.77
2019-03-02T09:34:36.943Z,971.77
2019-03-02T09:35:54.740Z,971.76
2019-03-02T09:37:06.984Z,971.71
2019-03-02T09:38:20.749Z,971.71
2019-03-02T09:39:31.337Z,971.69
2019-03-02T09:40:45.783Z,971.67
2019-03-02T09:41:57.979Z,971.71
2019-03-02T09:43:09.151Z,971.75
2019-03-02T09:44:21.535Z,971.71
2019-03-02T09:45:33.273Z,971.69
2019-03-02T09:46:45.325Z,971.69
2019-03-02T09:47:55.311Z,971.68
2019-03-02T09:49:07.226Z,971.59
2019-03-02T09:50:17.308Z,971.57
2019-03-02T09:51:29.311Z,971.53
2019-03-02T09:52:40.640Z,971.54
2019-03-02T09:53:50.956Z,971.53
2019-03-02T09:55:00.882Z,971.55
2019-03-02T09:56:10.849Z,971.55
2019-03-02T09:57:21.288Z,971.52
2019-03-02T09:58:32.941Z,971.65
2019-03-02T09:59:45.369Z,971.71
2019-03-02T10:00:56.787Z,971.7
2019-03-02T10:02:14.347Z,971.67
2019-03-02T10:03:26.688Z,971.6
2019-03-02T10:04:39.332Z,971.64
2019-03-02T10:05:49.838Z,971.59
2019-03-02T10:07:01.921Z,971.61
2019-03-02T10:08:13.214Z,971.58
2019-03-02T10:09:24.868Z,971.59
2019-03-02T10:10:36.650Z,971.51
2019-03-02T10:11:46.598Z,971.49
2019-03-02T10:12:56.618Z,971.45
2019-03-02T10:14:08.649Z,971.47
2019-03-02T10:15:24.685Z,971.5
2019-03-02T10:16:34.372Z,971.45
2019-03-02T10:17:44.314Z,971.51
2019-03-02T10:18:54.058Z,971.46
2019-03-02T10:20:05.107Z,971.46
2019-03-02T10:21:15.189Z,971.43
2019-03-02T10:22:25.109Z,971.37
2019-03-02T10:23:38.892Z,971.34
2019-03-02T10:24:52.890Z,971.3
2019-03-02T10:26:03.719Z,971.33
2019-03-02T10:27:17.059Z,971.28
2019-03-02T10:28:29.915Z,971.28
2019-03-02T10:29:44.204Z,971.25
2019-03-02T10:30:56.005Z,971.23
2019-03-02T10:32:09.023Z,971.26
2019-03-02T10:33:20.069Z,971.27
2019-03-02T10:34:33.236Z,971.29
2019-03-02T10:35:49.558Z,971.22
2019-03-02T10:37:03.497Z,971.18
2019-03-02T10:38:14.854Z,971.15
2019-03-02T10:39:29.027Z,971.09
2019-03-02T10:40:41.592Z,971.09
2019-03-02T10:41:52.933Z,971.07
2019-03-02T10:43:07.363Z,971.06
2019-03-02T10:44:21.235Z,971.06
2019-03-02T10:45:31.320Z,971.04
2019-03-02T10:46:41.369Z,970.99
2019-03-02T10:47:51.295Z,971.03
2019-03-02T10:49:01.796Z,971
2019-03-02T10:50:16.039Z,971.03
2019-03-02T10:51:28.629Z,971.05
2019-03-02T10:52:45.732Z,971
2019-03-02T10:53:59.549Z,970.98
2019-03-02T10:55:12.153Z,970.98
2019-03-02T10:56:24.685Z,970.91
2019-03-02T10:57:37.087Z,970.86
2019-03-02T10:58:47.007Z,970.88
2019-03-02T10:59:56.933Z,970.84
2019-03-02T11:01:07.174Z,970.77
2019-03-02T11:02:20.027Z,970.72
2019-03-02T11:03:31.658Z,970.68
2019-03-02T11:04:44.318Z,970.62
2019-03-02T11:05:56.753Z,970.68
2019-03-02T11:07:09.060Z,970.72
2019-03-02T11:08:21.689Z,970.67
2019-03-02T11:09:36.314Z,970.6
2019-03-02T11:10:48.642Z,970.52
2019-03-02T11:12:02.765Z,970.53
2019-03-02T11:13:15.857Z,970.51
2019-03-02T11:14:27.669Z,970.44
2019-03-02T11:15:43.439Z,970.44
2019-03-02T11:16:55.236Z,970.45
2019-03-02T11:18:06.799Z,970.42
2019-03-02T11:19:16.723Z,970.51
2019-03-02T11:20:26.649Z,970.44
2019-03-02T11:21:36.581Z,970.49
2019-03-02T11:22:46.499Z,970.55
2019-03-02T11:23:57.523Z,970.49
2019-03-02T11:25:07.551Z,970.44
2019-03-02T11:26:17.569Z,970.41
2019-03-02T11:27:27.495Z,970.39
2019-03-02T11:28:37.422Z,970.4
2019-03-02T11:29:50.888Z,970.36
2019-03-02T11:31:00.988Z,970.29
2019-03-02T11:32:11.019Z,970.23
2019-03-02T11:33:27.430Z,970.21
2019-03-02T11:34:38.734Z,970.26
2019-03-02T11:35:48.657Z,970.36
2019-03-02T11:36:58.586Z,970.33
2019-03-02T11:38:08.509Z,970.35
2019-03-02T11:39:18.450Z,970.4
2019-03-02T11:40:29.180Z,970.36
2019-03-02T11:41:40.747Z,970.36
2019-03-02T11:42:50.672Z,970.38
2019-03-02T11:44:02.340Z,970.47
2019-03-02T11:45:12.352Z,970.44
2019-03-02T11:46:22.022Z,970.43
2019-03-02T11:47:32.943Z,970.4
2019-03-02T11:48:47.665Z,970.25
2019-03-02T11:50:04.753Z,970.21
2019-03-02T11:51:17.330Z,970.22
2019-03-02T11:52:30.097Z,970.19
2019-03-02T11:53:43.826Z,970.15
2019-03-02T11:55:00.797Z,970.1
2019-03-02T11:56:11.939Z,970.14
2019-03-02T11:57:32.687Z,970.09
2019-03-02T11:58:42.616Z,970.17
2019-03-02T11:59:52.537Z,970.19
2019-03-02T12:01:03.426Z,970.11
2019-03-02T12:02:15.795Z,970.14
2019-03-02T12:03:29.171Z,970.11
2019-03-02T12:04:44.397Z,970.07
2019-03-02T12:06:05.050Z,970.06
2019-03-02T12:07:15.221Z,969.99
2019-03-02T12:08:24.911Z,970
2019-03-02T12:09:34.828Z,970.02
2019-03-02T12:10:44.765Z,970.1
2019-03-02T12:11:54.540Z,969.98
2019-03-02T12:13:04.469Z,969.94
2019-03-02T12:14:14.398Z,970.07
2019-03-02T12:15:24.980Z,970
2019-03-02T12:16:35.054Z,969.97
2019-03-02T12:17:45.889Z,969.98
2019-03-02T12:18:58.147Z,969.96
2019-03-02T12:20:10.343Z,969.95
2019-03-02T12:21:22.166Z,969.88
2019-03-02T12:22:34.335Z,969.9
2019-03-02T12:23:45.442Z,969.91
2019-03-02T12:24:58.344Z,969.87
2019-03-02T12:26:10.914Z,969.89
2019-03-02T12:27:22.226Z,969.82
2019-03-02T12:28:32.931Z,969.85
2019-03-02T12:29:45.963Z,969.77
2019-03-02T12:30:57.321Z,969.85
2019-03-02T12:32:08.549Z,969.84
2019-03-02T12:33:20.493Z,969.88
2019-03-02T12:34:34.142Z,969.93
2019-03-02T12:35:44.464Z,969.83
2019-03-02T12:36:54.513Z,969.79
2019-03-02T12:38:07.081Z,969.82
2019-03-02T12:39:23.816Z,969.79
2019-03-02T12:40:36.206Z,969.79
2019-03-02T12:41:48.793Z,969.78
2019-03-02T12:43:04.007Z,969.8
2019-03-02T12:44:17.335Z,969.74
2019-03-02T12:45:29.921Z,969.74
2019-03-02T12:46:41.455Z,969.76
2019-03-02T12:47:59.884Z,969.74
2019-03-02T12:49:10.901Z,969.74
2019-03-02T12:50:23.049Z,969.72
2019-03-02T12:51:35.086Z,969.66
2019-03-02T12:52:48.024Z,969.65
2019-03-02T12:54:00.789Z,969.61
2019-03-02T12:55:16.275Z,969.61
2019-03-02T12:56:29.021Z,969.53
2019-03-02T12:57:45.374Z,969.49
2019-03-02T12:59:00.741Z,969.55
2019-03-02T13:00:11.564Z,969.5
2019-03-02T13:01:21.488Z,969.47
2019-03-02T13:02:34.482Z,969.48
2019-03-02T13:03:51.809Z,969.46
2019-03-02T13:05:01.767Z,969.46
2019-03-02T13:06:11.692Z,969.47
2019-03-02T13:07:21.617Z,969.45
2019-03-02T13:08:31.547Z,969.48
2019-03-02T13:09:42.586Z,969.55
2019-03-02T13:10:53.360Z,969.6
2019-03-02T13:12:05.564Z,969.53
2019-03-02T13:13:20.628Z,969.51
2019-03-02T13:14:32.135Z,969.52
2019-03-02T13:15:45.374Z,969.48
2019-03-02T13:16:59.145Z,969.48
2019-03-02T13:18:13.928Z,969.3
2019-03-02T13:19:26.721Z,969.27
2019-03-02T13:20:39.292Z,969.29
2019-03-02T13:21:51.578Z,969.35
2019-03-02T13:23:02.972Z,969.32
2019-03-02T13:24:14.759Z,969.32
2019-03-02T13:25:34.075Z,969.27
2019-03-02T13:26:45.623Z,969.28
2019-03-02T13:28:00.953Z,969.3
2019-03-02T13:29:12.890Z,969.26
2019-03-02T13:30:25.669Z,969.26
2019-03-02T13:31:39.946Z,969.29
2019-03-02T13:32:52.413Z,969.27
2019-03-02T13:34:03.688Z,969.27
2019-03-02T13:35:19.814Z,969.29
2019-03-02T13:36:31.310Z,969.28
2019-03-02T13:37:44.520Z,969.27
2019-03-02T13:38:59.883Z,969.26
2019-03-02T13:40:17.951Z,969.25
2019-03-02T13:41:34.062Z,969.16
2019-03-02T13:42:50.920Z,969.12
2019-03-02T13:44:07.331Z,969.03
2019-03-02T13:45:19.056Z,969.02
2019-03-02T13:46:30.988Z,968.98
2019-03-02T13:47:44.840Z,968.97
2019-03-02T13:48:58.092Z,968.92
2019-03-02T13:50:09.969Z,968.94
2019-03-02T13:51:25.855Z,968.9
2019-03-02T13:52:43.379Z,968.8
2019-03-02T13:53:58.961Z,968.84
2019-03-02T13:55:13.382Z,968.86
2019-03-02T13:56:26.333Z,968.82
2019-03-02T13:57:41.123Z,968.81
2019-03-02T13:58:54.817Z,968.82
2019-03-02T14:00:07.696Z,968.88
2019-03-02T14:01:21.130Z,968.82
2019-03-02T14:02:35.033Z,968.81
2019-03-02T14:03:51.009Z,968.75
2019-03-02T14:05:05.554Z,968.76
2019-03-02T14:06:18.143Z,968.72
2019-03-02T14:07:31.112Z,968.63
2019-03-02T14:08:43.336Z,968.65
2019-03-02T14:09:53.559Z,968.68
2019-03-02T14:11:03.486Z,968.69
2019-03-02T14:12:15.826Z,968.71
2019-03-02T14:13:30.507Z,968.73
2019-03-02T14:14:40.957Z,968.7
2019-03-02T14:15:55.259Z,968.69
2019-03-02T14:17:08.200Z,968.7
2019-03-02T14:18:19.515Z,968.6
2019-03-02T14:19:33.929Z,968.64
2019-03-02T14:20:51.212Z,968.69
2019-03-02T14:22:04.259Z,968.7
2019-03-02T14:23:17.866Z,968.72
2019-03-02T14:24:37.398Z,968.75
2019-03-02T14:25:56.046Z,968.78
2019-03-02T14:27:07.974Z,968.77
2019-03-02T14:28:17.658Z,968.76
2019-03-02T14:29:31.111Z,968.76
2019-03-02T14:30:43.448Z,968.84
2019-03-02T14:31:57.735Z,968.83
2019-03-02T14:33:10.659Z,968.92
2019-03-02T14:34:20.580Z,968.96
2019-03-02T14:35:30.357Z,968.9
2019-03-02T14:36:42.486Z,968.87
2019-03-02T14:37:52.408Z,968.81
2019-03-02T14:39:02.770Z,968.76
2019-03-02T14:40:14.559Z,968.74
2019-03-02T14:41:28.546Z,968.78
2019-03-02T14:42:39.840Z,968.74
2019-03-02T14:43:53.572Z,968.74
2019-03-02T14:45:06.072Z,968.67
2019-03-02T14:46:19.078Z,968.69
2019-03-02T14:47:33.024Z,968.68
2019-03-02T14:48:45.862Z,968.67
2019-03-02T14:49:57.032Z,968.7
2019-03-02T14:51:13.479Z,968.72
2019-03-02T14:52:28.848Z,968.74
2019-03-02T14:53:41.916Z,968.76
2019-03-02T14:54:53.092Z,968.81
2019-03-02T14:56:06.204Z,968.75
2019-03-02T14:57:20.915Z,968.74
2019-03-02T14:58:33.975Z,968.67
2019-03-02T14:59:46.750Z,968.67
2019-03-02T15:00:58.863Z,968.65
2019-03-02T15:02:12.906Z,968.68
2019-03-02T15:03:24.942Z,968.66
2019-03-02T15:04:42.863Z,968.75
2019-03-02T15:05:53.080Z,968.7
2019-03-02T15:07:18.320Z,968.68